• Join FlightAware (Why Join?)
  • Login
  • US Flag 
09:14PM EST


 

Airport Tracker/Info


-or-


 

Live Flight TrackerFlight Track Log ✈ CDG4712 ✈ 17-Jul-2014 ✈ ZGGG / CAN - ZSWY / WUS

Flight Track Log - Related Links

Times and Time Zones

All times are in EDT time to prevent confusion due to time zone crossing. See the CDG4712 flight status page for this flight to view local times or setup timezone preferences in your user account.

Time Position Orientation Groundspeed Altitude Reporting Facility
EDT Latitude Longitude Course Direction KTS MPH feet Rate Location/Type
01:34AM 23.9709 113.9020 44° Northeast  Level Estimated
01:35AM 24.0350 113.9694 44° Northeast  Level Estimated
01:36AM 24.0991 114.0368 44° Northeast  Level Estimated
01:37AM 24.1632 114.1043 44° Northeast  Level Estimated
01:38AM 24.2272 114.1718 44° Northeast  Level Estimated
01:39AM 24.2912 114.2395 44° Northeast  Level Estimated
01:40AM 24.3552 114.3072 44° Northeast  Level Estimated
01:41AM 24.4191 114.3749 44° Northeast  Level Estimated
01:42AM 24.4831 114.4427 44° Northeast  Level Estimated
01:43AM 24.5469 114.5107 44° Northeast  Level Estimated
01:44AM 24.6108 114.5786 44° Northeast  Level Estimated
01:45AM 24.6746 114.6467 44° Northeast  Level Estimated
01:46AM 24.7384 114.7148 44° Northeast  Level Estimated
01:47AM 24.8022 114.7829 44° Northeast  Level Estimated
01:48AM 24.8659 114.8512 44° Northeast  Level Estimated
01:49AM 24.9296 114.9195 44° Northeast  Level Estimated
01:50AM 24.9933 114.9879 44° Northeast  Level Estimated
01:51AM 25.0569 115.0564 44° Northeast  Level Estimated
01:52AM 25.1205 115.1249 44° Northeast  Level Estimated
01:53AM 25.1841 115.1935 44° Northeast  Level Estimated
01:54AM 25.2477 115.2622 44° Northeast  Level Estimated
01:55AM 25.3112 115.3309 44° Northeast  Level Estimated
01:56AM 25.3747 115.3997 44° Northeast  Level Estimated
01:57AM 25.4381 115.4686 44° Northeast  Level Estimated
01:58AM 25.5015 115.5376 44° Northeast  Level Estimated
01:59AM 25.5649 115.6066 44° Northeast  Level Estimated
02:00AM 25.6283 115.6757 45° Northeast  Level Estimated
02:01AM 25.6916 115.7449 45° Northeast  Level Estimated
02:02AM 25.7549 115.8142 45° Northeast  Level Estimated
02:03AM 25.8181 115.8835 45° Northeast  Level Estimated
02:04AM 25.8813 115.9529 45° Northeast  Level Estimated
02:05AM 25.9445 116.0224 45° Northeast  Level Estimated
02:06AM 26.0077 116.0919 45° Northeast  Level Estimated
02:07AM 26.0708 116.1616 45° Northeast  Level Estimated
02:08AM 26.1339 116.2313 45° Northeast  Level Estimated
02:09AM 26.1970 116.3011 45° Northeast  Level Estimated
02:10AM 26.2600 116.3709 45° Northeast  Level Estimated
02:11AM 26.3230 116.4408 45° Northeast  Level Estimated
02:12AM 26.3859 116.5108 45° Northeast  Level Estimated
02:13AM 26.4489 116.5809 45° Northeast  Level Estimated
02:14AM 26.5117 116.6511 45° Northeast  Level Estimated
02:15AM 26.5746 116.7213 45° Northeast  Level Estimated
02:16AM 26.6374 116.7916 45° Northeast  Level Estimated
02:17AM 26.7002 116.8620 45° Northeast  Level Estimated
02:18AM 26.7629 116.9325 45° Northeast  Level Estimated
02:19AM 26.8256 117.0030 45° Northeast  Level Estimated
02:20AM 26.8883 117.0737 45° Northeast  Level Estimated
02:21AM 26.9510 117.1444 45° Northeast  Level Estimated
02:22AM 27.0136 117.2151 45° Northeast  Level Estimated
02:23AM 27.0761 117.2860 45° Northeast  Level Estimated
02:24AM 27.1387 117.3569 45° Northeast  Level Estimated
02:25AM 27.2012 117.4280 45° Northeast  Level Estimated
02:26AM 27.2636 117.4991 45° Northeast  Level Estimated
02:27AM 27.3261 117.5703 45° Northeast  Level Estimated
02:28AM 27.3885 117.6415 45° Northeast  Level Estimated
02:29AM 27.4508 117.7128 45° Northeast  Level Estimated
02:30AM 27.5131 117.7843 45° Northeast  Level Estimated
02:31AM 27.5754 117.8558 45° Northeast  Level Estimated
02:32AM 27.6377 117.9273 46° Northeast  Level Estimated
02:33AM 27.6999 117.9990 46° Northeast  Level Estimated
02:34AM 27.7019 118.0014 46° Northeast  Level Estimated
02:35AM 27.7019 118.0014 North  Level Estimated
02:36AM 27.7019 118.0014 North  Level Estimated
02:37AM 27.7019 118.0014 North  Level Estimated
02:38AM 27.7019 118.0014 North  Level Estimated